Time;durP1;ratioP1;P1;durP2;ratioP2;P2;SDS_P1;SDS_P2;PMS_P1;PMS_P2;Temp;Humidity;BMP_temperature;BMP_pressure;BME280_temperature;BME280_humidity;BME280_pressure;Samples;Min_cycle;Max_cycle;Signal;HPM_P1;HPM_P2
2022/12/03 00:00:25;;;;;;;16.20;11.90;;;;;;;5.15;64.39;100878.06;5131516;27;20047;-64
2022/12/03 00:02:52;;;;;;;15.25;11.50;;;;;;;5.19;63.84;100871.72;5135095;27;20055;-64
2022/12/03 00:05:20;;;;;;;14.23;9.95;;;;;;;5.28;63.29;100874.81;5136077;27;20054;-64
2022/12/03 00:07:48;;;;;;;14.05;10.73;;;;;;;5.27;63.42;100879.50;5136281;27;20380;-63
2022/12/03 00:10:15;;;;;;;16.15;11.45;;;;;;;5.24;63.42;100874.50;5136237;27;20051;-64
2022/12/03 00:12:42;;;;;;;14.43;11.27;;;;;;;5.24;63.45;100877.25;5136378;27;20047;-64
2022/12/03 00:15:11;;;;;;;14.38;10.45;;;;;;;5.27;63.24;100876.75;5136374;27;20757;-64
2022/12/03 00:17:42;;;;;;;16.48;11.18;;;;;;;5.29;63.43;100874.53;5136386;27;20055;-64
2022/12/03 00:20:17;;;;;;;14.30;11.10;;;;;;;5.31;62.94;100876.19;5136022;27;20051;-64
2022/12/03 00:22:47;;;;;;;16.48;11.40;;;;;;;5.32;62.92;100875.09;5136198;27;20055;-64
2022/12/03 00:25:14;;;;;;;13.77;10.10;;;;;;;5.25;62.67;100870.66;5135780;27;20499;-64
2022/12/03 00:27:42;;;;;;;15.70;11.13;;;;;;;5.21;63.44;100872.28;5135552;27;20055;-64
2022/12/03 00:30:10;;;;;;;17.13;12.40;;;;;;;5.19;64.25;100876.41;5135343;27;20051;-64
2022/12/03 00:32:38;;;;;;;15.65;11.10;;;;;;;5.23;64.08;100872.84;5135798;27;20554;-64
2022/12/03 00:35:07;;;;;;;14.68;11.15;;;;;;;5.21;64.13;100864.00;5135408;27;20494;-64
2022/12/03 00:37:35;;;;;;;13.60;10.50;;;;;;;5.23;63.63;100869.25;5136008;27;20401;-64
2022/12/03 00:40:06;;;;;;;14.30;10.55;;;;;;;5.26;63.31;100871.47;5133662;27;20087;-64
2022/12/03 00:42:36;;;;;;;13.82;10.30;;;;;;;5.28;63.29;100861.81;5133009;27;20058;-64
2022/12/03 00:45:04;;;;;;;15.07;11.23;;;;;;;5.38;62.43;100863.78;5134185;27;20047;-64
2022/12/03 00:47:32;;;;;;;15.38;10.10;;;;;;;5.20;63.44;100854.03;5135899;27;20055;-64
2022/12/03 00:50:02;;;;;;;15.05;10.75;;;;;;;5.19;63.56;100859.84;5134270;27;20058;-64
2022/12/03 00:52:30;;;;;;;;;;;;;;;5.10;63.37;100862.28;5106967;27;20063;-64
2022/12/03 00:54:57;;;;;;;18.42;13.27;;;;;;;5.06;63.67;100853.72;5092256;28;20275;-64
2022/12/03 00:57:24;;;;;;;14.90;10.88;;;;;;;5.12;63.65;100860.06;5093379;28;20044;-64
2022/12/03 00:59:52;;;;;;;13.05;10.27;;;;;;;5.17;63.70;100851.84;5093366;28;20055;-64
2022/12/03 01:02:19;;;;;;;15.00;10.90;;;;;;;5.15;63.30;100858.72;5093430;28;20061;-64
2022/12/03 01:04:46;;;;;;;16.02;11.35;;;;;;;5.15;63.52;100861.50;5086444;28;20063;-64
2022/12/03 01:07:13;;;;;;;14.25;10.65;;;;;;;5.20;63.15;100856.81;5082853;28;20048;-64
2022/12/03 01:09:42;;;;;;;14.93;10.95;;;;;;;5.21;63.20;100852.97;5091820;28;20048;-64
2022/12/03 01:12:10;;;;;;;14.60;11.07;;;;;;;5.20;63.21;100856.81;5092827;28;20063;-64
2022/12/03 01:14:38;;;;;;;14.68;11.13;;;;;;;5.28;63.45;100863.75;5092863;28;20052;-64
2022/12/03 01:17:05;;;;;;;16.33;11.43;;;;;;;5.24;62.57;100859.88;5092787;28;20044;-64
2022/12/03 01:19:34;;;;;;;15.13;11.38;;;;;;;5.24;62.93;100859.88;5094192;28;20416;-64
2022/12/03 01:22:01;;;;;;;14.88;10.77;;;;;;;5.24;63.03;100868.97;5090826;28;20059;-64
2022/12/03 01:24:29;;;;;;;15.32;10.60;;;;;;;5.28;63.01;100866.50;5091085;28;20064;-64
2022/12/03 01:26:57;;;;;;;15.18;10.98;;;;;;;5.32;62.76;100861.28;5089986;28;20050;-64
2022/12/03 01:29:28;;;;;;;15.82;11.52;;;;;;;5.33;62.99;100865.69;5092300;28;20052;-64
2022/12/03 01:32:15;;;;;;;16.20;11.13;;;;;;;5.34;62.95;100870.97;5092455;28;20059;-64
2022/12/03 01:34:45;;;;;;;13.75;9.82;;;;;;;5.35;63.03;100871.78;5092691;28;20392;-64
2022/12/03 01:37:13;;;;;;;14.00;10.55;;;;;;;5.32;62.50;100864.06;5090623;28;20051;-64
2022/12/03 01:39:40;;;;;;;16.38;10.85;;;;;;;5.35;62.83;100860.75;5080585;28;20059;-64
2022/12/03 01:42:15;;;;;;;12.93;10.15;;;;;;;5.38;63.10;100860.22;5092376;28;20056;-64
2022/12/03 01:44:45;;;;;;;15.43;10.73;;;;;;;5.39;62.83;100859.09;5092558;28;20048;-64
2022/12/03 01:47:15;;;;;;;16.55;11.50;;;;;;;5.39;63.16;100859.91;5092099;28;20408;-64
2022/12/03 01:49:46;;;;;;;16.90;11.70;;;;;;;5.36;62.67;100854.94;5093424;28;20048;-64
2022/12/03 01:52:16;;;;;;;15.20;10.73;;;;;;;5.37;62.42;100861.28;5112999;27;20383;-64
2022/12/03 01:54:47;;;;;;;16.60;11.43;;;;;;;5.32;63.01;100855.75;5132358;27;20058;-64
2022/12/03 01:57:25;;;;;;;17.20;12.57;;;;;;;5.32;63.02;100853.81;5130776;27;20043;-64
2022/12/03 01:59:53;;;;;;;15.82;11.32;;;;;;;5.34;63.21;100861.84;5132733;27;20055;-64
2022/12/03 02:02:24;;;;;;;15.13;11.45;;;;;;;5.35;63.03;100860.75;5131888;27;20074;-64
2022/12/03 02:04:52;;;;;;;15.40;11.40;;;;;;;5.33;63.41;100860.16;5132600;27;20062;-64
2022/12/03 02:07:24;;;;;;;16.90;11.48;;;;;;;5.35;62.98;100856.03;5129825;27;20069;-64
2022/12/03 02:09:51;;;;;;;17.25;12.35;;;;;;;5.40;63.23;100866.28;5132143;27;20376;-64
2022/12/03 02:12:25;;;;;;;16.42;11.60;;;;;;;5.38;63.10;100862.97;5131196;27;20391;-64
2022/12/03 02:14:55;;;;;;;16.90;11.55;;;;;;;5.43;62.48;100871.25;5133069;27;20051;-64
2022/12/03 02:17:22;;;;;;;;;;;;;;;5.17;63.03;100862.06;5132616;27;20050;-64
2022/12/03 02:19:49;;;;;;;17.90;12.20;;;;;;;5.27;62.95;100862.06;5132515;27;20386;-64
2022/12/03 02:22:27;;;;;;;17.92;11.60;;;;;;;5.27;62.76;100867.59;5131282;27;20419;-64
2022/12/03 02:25:13;;;;;;;19.50;12.73;;;;;;;5.29;62.62;100866.25;5131282;27;20051;-64
2022/12/03 02:27:40;;;;;;;18.88;12.70;;;;;;;5.26;63.01;100865.94;5131870;27;20043;-64
2022/12/03 02:30:09;;;;;;;19.08;12.68;;;;;;;5.29;63.16;100857.97;5131032;27;20412;-64
2022/12/03 02:32:37;;;;;;;19.60;13.33;;;;;;;5.28;63.00;100856.28;5132038;27;20069;-64
2022/12/03 02:35:05;;;;;;;19.95;13.30;;;;;;;5.33;62.94;100863.75;5131704;27;20055;-64
2022/12/03 02:37:35;;;;;;;20.70;13.05;;;;;;;5.29;62.20;100854.34;5131605;27;20474;-64
2022/12/03 02:40:08;;;;;;;18.33;12.23;;;;;;;5.21;62.21;100854.91;5131286;27;20055;-64
2022/12/03 02:42:36;;;;;;;18.88;12.32;;;;;;;5.20;62.18;100847.69;5132430;27;20431;-64
2022/12/03 02:45:09;;;;;;;21.23;13.80;;;;;;;5.14;62.95;100846.81;5132365;27;20074;-64
2022/12/03 02:47:43;;;;;;;20.15;13.00;;;;;;;5.15;63.00;100848.50;5114448;27;20499;-64
2022/12/03 02:50:14;;;;;;;21.17;13.40;;;;;;;5.15;62.60;100842.97;5131945;27;20047;-64
2022/12/03 02:52:45;;;;;;;20.27;13.25;;;;;;;5.18;62.81;100847.13;5103319;27;20052;-64
2022/12/03 02:55:15;;;;;;;19.75;13.10;;;;;;;5.20;62.73;100839.41;5090749;28;20063;-64
2022/12/03 02:57:46;;;;;;;;;;;;;;;5.16;62.64;100844.63;5089905;28;20052;-64
2022/12/03 03:00:15;;;;;;;21.33;12.90;;;;;;;5.17;63.00;100843.53;5089793;28;19928;-64
2022/12/03 03:02:43;;;;;;;21.60;13.73;;;;;;;5.19;62.43;100838.59;5087143;28;20072;-64
2022/12/03 03:05:11;;;;;;;20.40;13.38;;;;;;;5.20;62.64;100839.41;5090545;28;20060;-64
2022/12/03 03:07:39;;;;;;;20.88;12.38;;;;;;;5.23;62.12;100844.41;5090900;28;20059;-64
2022/12/03 03:10:09;;;;;;;24.27;13.88;;;;;;;5.19;62.69;100840.53;5090302;28;20388;-64
2022/12/03 03:12:36;;;;;;;;;;;;;;;5.06;63.20;100839.91;5080903;28;20511;-64
2022/12/03 03:15:07;;;;;;;25.90;14.52;;;;;;;5.15;62.47;100844.91;5091140;28;19927;-64
2022/12/03 03:17:35;;;;;;;21.50;12.77;;;;;;;5.17;62.47;100845.47;5089915;28;20496;-64
2022/12/03 03:20:03;;;;;;;22.27;12.95;;;;;;;5.14;62.54;100840.47;5091249;28;20078;-64
2022/12/03 03:22:33;;;;;;;25.10;14.57;;;;;;;5.07;62.03;100837.97;5092097;28;20052;-64
2022/12/03 03:25:00;;;;;;;20.55;13.10;;;;;;;5.02;62.16;100844.31;5090084;28;20052;-64
2022/12/03 03:27:32;;;;;;;25.67;15.60;;;;;;;4.98;62.53;100836.84;5091143;28;20044;-64
2022/12/03 03:30:00;;;;;;;23.13;14.02;;;;;;;5.01;62.42;100834.34;5089701;28;20051;-64
2022/12/03 03:32:29;;;;;;;23.17;14.60;;;;;;;5.03;62.61;100834.09;5092014;28;20051;-63
2022/12/03 03:34:57;;;;;;;22.38;14.43;;;;;;;4.99;62.68;100839.31;5091167;28;20051;-64
2022/12/03 03:37:27;;;;;;;22.98;14.00;;;;;;;5.06;62.05;100839.06;5089553;28;20070;-64
2022/12/03 03:39:55;;;;;;;23.42;14.15;;;;;;;5.05;62.32;100840.16;5091179;28;20059;-63
2022/12/03 03:42:23;;;;;;;19.70;12.30;;;;;;;5.00;62.50;100840.97;5090969;28;20078;-62
2022/12/03 03:44:50;;;;;;;22.17;12.57;;;;;;;5.00;62.29;100831.88;5088562;28;20058;-62
2022/12/03 03:47:19;;;;;;;23.30;14.00;;;;;;;5.05;62.08;100832.72;5091056;28;20048;-62
2022/12/03 03:49:49;;;;;;;22.08;13.70;;;;;;;4.96;61.96;100839.84;5090775;28;20465;-62
2022/12/03 03:52:17;;;;;;;23.50;14.25;;;;;;;4.92;62.17;100838.72;5090406;28;20067;-63
2022/12/03 03:54:46;;;;;;;27.33;15.10;;;;;;;4.95;63.05;100834.59;5090711;28;20047;-63
2022/12/03 03:57:14;;;;;;;22.10;13.82;;;;;;;4.90;62.87;100829.88;5077310;28;20048;-63
2022/12/03 03:59:41;;;;;;;23.40;13.93;;;;;;;4.95;62.63;100831.84;5089821;28;20424;-62
2022/12/03 04:02:17;;;;;;;24.23;13.73;;;;;;;4.96;62.00;100834.34;5088497;28;20056;-62
2022/12/03 04:04:45;;;;;;;25.67;14.95;;;;;;;4.93;62.39;100831.28;5089838;28;20048;-63
2022/12/03 04:07:16;;;;;;;20.60;12.85;;;;;;;4.96;62.24;100826.06;5089169;28;20048;-62
2022/12/03 04:09:44;;;;;;;23.10;13.73;;;;;;;4.95;62.48;100823.56;5090518;28;20516;-62
2022/12/03 04:14:56;;;;;;;25.85;14.90;;;;;;;5.02;62.98;100829.69;5089971;28;20071;-63
2022/12/03 04:17:24;;;;;;;24.13;14.43;;;;;;;5.03;62.81;100828.56;5094365;28;20059;-62
2022/12/03 04:19:51;;;;;;;23.10;14.57;;;;;;;4.99;62.88;100828.25;5093721;28;20063;-63
2022/12/03 04:30:35;;;;;;;26.67;14.55;;;;;;;5.05;62.23;100815.31;5092264;28;20499;-63
2022/12/03 04:35:49;;;;;;;24.95;15.52;;;;;;;5.00;62.48;100815.31;5090885;28;20087;-63
2022/12/03 04:38:18;;;;;;;26.23;14.55;;;;;;;4.98;62.38;100814.75;5091502;28;20405;-62
2022/12/03 04:41:02;;;;;;;24.92;14.48;;;;;;;5.03;62.21;100817.53;5094126;28;20499;-63
2022/12/03 04:43:31;;;;;;;25.42;14.55;;;;;;;5.02;62.69;100813.13;5093840;28;20048;-62
2022/12/03 04:45:59;;;;;;;26.52;14.65;;;;;;;5.02;62.73;100811.19;5094104;28;20043;-63
2022/12/03 04:48:26;;;;;;;25.63;14.90;;;;;;;5.03;62.16;100800.97;5094193;28;20485;-62
2022/12/03 04:50:54;;;;;;;22.10;13.90;;;;;;;5.04;62.14;100800.69;5093081;28;20052;-62
2022/12/03 04:53:22;;;;;;;26.20;14.40;;;;;;;5.00;61.98;100798.75;5092881;28;20051;-63
2022/12/03 04:55:50;;;;;;;26.40;15.98;;;;;;;4.96;61.96;100801.22;5085980;28;20486;-63
2022/12/03 04:58:17;;;;;;;25.77;14.68;;;;;;;5.01;62.69;100801.22;5074855;28;20052;-63
2022/12/03 05:00:44;;;;;;;22.55;13.40;;;;;;;5.06;62.16;100801.25;5093697;28;20055;-63
2022/12/03 05:03:14;;;;;;;26.27;15.07;;;;;;;5.02;62.17;100800.13;5092226;28;20052;-63
2022/12/03 05:05:41;;;;;;;27.33;14.80;;;;;;;5.01;62.27;100792.13;5084333;28;20083;-63
2022/12/03 05:08:09;;;;;;;27.15;15.00;;;;;;;4.98;61.99;100792.66;5078532;28;20508;-63
2022/12/03 05:10:40;;;;;;;29.33;14.52;;;;;;;4.97;62.41;100796.50;5089544;28;20052;-62
2022/12/03 05:13:07;;;;;;;25.80;15.93;;;;;;;5.02;62.30;100800.13;5089347;28;20051;-63
2022/12/03 05:15:35;;;;;;;26.73;15.27;;;;;;;4.99;61.82;100795.13;5093115;28;20052;-63
2022/12/03 05:18:02;;;;;;;27.27;15.98;;;;;;;4.86;62.98;100790.13;5094026;28;20412;-63
2022/12/03 05:20:41;;;;;;;26.98;15.02;;;;;;;4.92;62.30;100790.97;5091171;28;20431;-63
2022/12/03 05:23:10;;;;;;;26.95;14.75;;;;;;;4.86;62.87;100793.69;5091253;28;20147;-64
2022/12/03 05:25:38;;;;;;;25.27;14.45;;;;;;;4.88;62.40;100788.75;5091360;28;20067;-63
2022/12/03 05:28:06;;;;;;;24.85;14.43;;;;;;;4.95;62.68;100790.44;5091819;28;20047;-63
2022/12/03 05:30:34;;;;;;;26.92;14.57;;;;;;;4.97;61.70;100791.00;5087961;28;20052;-62
2022/12/03 05:33:02;;;;;;;24.38;14.18;;;;;;;4.88;62.35;100788.75;5090805;28;20055;-63
2022/12/03 05:35:29;;;;;;;26.33;15.05;;;;;;;4.89;62.69;100781.28;5091195;28;20060;-62
2022/12/03 05:37:56;;;;;;;24.25;15.05;;;;;;;4.84;62.20;100787.63;5093893;28;20485;-63
2022/12/03 05:40:24;;;;;;;27.90;14.80;;;;;;;4.90;62.35;100788.47;5091456;28;20048;-62
2022/12/03 05:42:55;;;;;;;26.13;14.77;;;;;;;4.93;62.26;100792.63;5092627;28;20075;-63
2022/12/03 05:45:24;;;;;;;24.95;14.73;;;;;;;4.92;62.34;100788.22;5091645;28;20504;-64
2022/12/03 05:47:52;;;;;;;25.30;14.35;;;;;;;4.92;62.39;100788.22;5092289;28;20059;-63
2022/12/03 05:50:20;;;;;;;24.77;14.10;;;;;;;4.89;61.87;100792.31;5091364;28;20051;-63
2022/12/03 05:52:47;;;;;;;23.88;13.30;;;;;;;4.83;61.98;100788.72;5121645;27;20058;-63
2022/12/03 05:55:15;;;;;;;25.40;14.93;;;;;;;4.74;62.23;100790.31;5132925;27;20057;-63
2022/12/03 05:57:42;;;;;;;27.40;14.13;;;;;;;4.76;62.75;100790.06;5132053;27;20055;-63
2022/12/03 06:00:13;;;;;;;27.63;15.20;;;;;;;4.79;62.40;100795.06;5130423;27;20117;-63
2022/12/03 06:02:41;;;;;;;24.85;13.82;;;;;;;4.83;62.85;100794.25;5132885;27;20054;-64
2022/12/03 06:05:10;;;;;;;26.38;14.88;;;;;;;4.83;62.42;100796.16;5131638;27;20051;-63
2022/12/03 06:07:37;;;;;;;25.92;15.35;;;;;;;4.72;62.33;100792.50;5130376;27;20055;-63
2022/12/03 06:10:06;;;;;;;26.95;14.27;;;;;;;4.79;62.74;100795.06;5133177;27;20395;-62
2022/12/03 06:12:33;;;;;;;25.33;13.43;;;;;;;4.81;62.13;100810.25;5132918;27;20058;-63
2022/12/03 06:15:00;;;;;;;26.38;14.52;;;;;;;4.78;62.45;100805.25;5132454;27;20494;-63
2022/12/03 06:17:29;;;;;;;24.85;13.77;;;;;;;4.79;62.33;100806.09;5132295;27;20436;-63
2022/12/03 06:19:56;;;;;;;22.27;12.80;;;;;;;4.75;61.38;100805.78;5131278;27;20043;-62
2022/12/03 06:22:23;;;;;;;25.10;14.32;;;;;;;4.73;61.30;100798.88;5121868;27;20044;-62
2022/12/03 06:24:51;;;;;;;23.17;14.15;;;;;;;4.66;62.26;100796.34;5131781;27;20051;-63
2022/12/03 06:27:18;;;;;;;23.48;13.70;;;;;;;4.57;62.53;100803.47;5132523;27;20168;-63
2022/12/03 06:29:45;;;;;;;24.23;14.00;;;;;;;4.54;62.24;100799.31;5131914;27;20047;-63
2022/12/03 06:32:12;;;;;;;25.63;13.70;;;;;;;4.53;62.31;100807.84;5132238;27;20411;-63
2022/12/03 06:34:41;;;;;;;23.92;14.52;;;;;;;4.53;62.70;100807.84;5129617;27;20058;-62
2022/12/03 06:37:08;;;;;;;24.27;15.13;;;;;;;4.51;63.31;100796.25;5131754;27;20511;-62
2022/12/03 06:39:36;;;;;;;27.85;14.98;;;;;;;4.52;62.56;100803.44;5130563;27;20051;-63
2022/12/03 06:42:03;;;;;;;29.00;15.65;;;;;;;4.47;63.17;100805.06;5132086;27;20055;-63
2022/12/03 06:44:30;;;;;;;27.33;14.77;;;;;;;4.52;62.22;100801.50;5130564;27;20079;-63
2022/12/03 06:46:57;;;;;;;24.50;14.35;;;;;;;4.55;62.86;100794.63;5132386;27;20445;-62
2022/12/03 06:49:25;;;;;;;28.70;15.75;;;;;;;4.56;62.69;100801.81;5131232;27;20055;-62
2022/12/03 06:51:53;;;;;;;27.27;15.60;;;;;;;4.54;62.03;100798.50;5115479;27;20052;-62
2022/12/03 06:54:20;;;;;;;28.35;15.38;;;;;;;4.54;62.67;100795.75;5090729;28;20048;-62
2022/12/03 06:56:48;;;;;;;27.55;15.30;;;;;;;4.57;62.15;100800.72;5090014;28;20052;-63
2022/12/03 06:59:15;;;;;;;26.88;15.65;;;;;;;4.59;62.52;100799.34;5092060;28;20378;-63
2022/12/03 07:01:42;;;;;;;29.77;16.15;;;;;;;4.51;61.87;100807.28;5089997;28;20067;-62
2022/12/03 07:04:09;;;;;;;26.20;15.10;;;;;;;4.51;62.63;100799.00;5091348;28;20047;-63
2022/12/03 07:06:37;;;;;;;31.50;16.88;;;;;;;4.50;63.27;100806.47;5089711;28;20453;-62
2022/12/03 07:09:05;;;;;;;29.50;16.05;;;;;;;4.56;61.95;100801.81;5089925;28;20043;-62
2022/12/03 07:11:38;;;;;;;25.85;15.05;;;;;;;4.56;62.71;100799.06;5090215;28;20052;-63
2022/12/03 07:14:07;;;;;;;27.85;15.23;;;;;;;4.58;62.53;100805.16;5091452;28;20055;-63
2022/12/03 07:16:35;;;;;;;27.10;15.85;;;;;;;4.55;61.81;100800.97;5090471;28;20048;-63
2022/12/03 07:19:04;;;;;;;28.80;16.40;;;;;;;4.48;62.02;100803.97;5088959;28;20051;-63
2022/12/03 07:21:31;;;;;;;31.25;17.38;;;;;;;4.54;62.40;100804.84;5090528;28;20063;-64
2022/12/03 07:23:58;;;;;;;25.13;15.45;;;;;;;4.60;62.08;100812.06;5085856;28;20105;-63
2022/12/03 07:26:27;;;;;;;27.67;15.77;;;;;;;4.58;62.22;100800.44;5091058;28;20052;-64
2022/12/03 07:28:54;;;;;;;28.95;16.42;;;;;;;4.59;61.37;100806.78;5091797;28;20048;-64
2022/12/03 07:31:21;;;;;;;28.10;15.23;;;;;;;4.45;62.28;100795.38;5090883;28;20059;-64
2022/12/03 07:33:49;;;;;;;26.70;15.27;;;;;;;4.60;62.39;100798.25;5089619;28;20055;-64
2022/12/03 07:36:16;;;;;;;30.92;14.52;;;;;;;4.71;62.01;100793.63;5078381;28;20060;-64
2022/12/03 07:38:43;;;;;;;24.73;14.45;;;;;;;4.77;62.89;100783.47;5087309;28;20059;-64
2022/12/03 07:41:10;;;;;;;21.85;13.80;;;;;;;4.83;61.67;100793.41;5089949;28;20047;-64
2022/12/03 07:43:39;;;;;;;27.77;15.10;;;;;;;4.92;61.69;100793.75;5090874;28;20067;-64
2022/12/03 07:46:07;;;;;;;24.95;14.77;;;;;;;4.98;61.50;100789.91;5090681;28;20063;-64
2022/12/03 07:48:34;;;;;;;24.08;15.27;;;;;;;5.02;61.06;100788.28;5090464;28;20047;-64
2022/12/03 07:51:01;;;;;;;23.55;13.40;;;;;;;5.04;61.46;100778.59;5088303;28;20051;-64
2022/12/03 07:53:28;;;;;;;21.42;12.82;;;;;;;5.06;60.58;100786.59;5090802;28;20051;-64
2022/12/03 07:55:56;;;;;;;24.75;14.23;;;;;;;5.08;60.06;100785.25;5092141;28;20070;-64
2022/12/03 07:58:23;;;;;;;23.40;13.02;;;;;;;5.13;60.48;100789.97;5092735;28;20056;-65
2022/12/03 08:00:52;;;;;;;25.08;14.00;;;;;;;5.19;60.26;100780.59;5092536;28;20052;-64
2022/12/03 08:03:19;;;;;;;23.42;14.88;;;;;;;5.19;59.41;100779.78;5090581;28;20048;-65
2022/12/03 08:05:46;;;;;;;23.25;14.50;;;;;;;5.12;59.51;100782.75;5088046;28;20063;-64
2022/12/03 08:08:13;;;;;;;24.40;14.48;;;;;;;5.06;59.76;100781.94;5092151;28;20480;-65
2022/12/03 08:10:41;;;;;;;24.27;14.32;;;;;;;5.00;60.17;100784.94;5092255;28;20429;-64
2022/12/03 08:13:12;;;;;;;21.25;13.20;;;;;;;5.08;59.62;100788.00;5098209;28;20063;-65
2022/12/03 08:15:40;;;;;;;23.67;13.38;;;;;;;5.05;60.06;100782.19;5093724;28;20481;-64
2022/12/03 08:18:14;;;;;;;21.80;14.57;;;;;;;5.15;59.65;100781.41;5089123;28;20051;-64
2022/12/03 08:20:43;;;;;;;24.63;15.52;;;;;;;5.16;58.58;100780.28;5078256;28;20048;-64
2022/12/03 08:23:13;;;;;;;22.83;13.80;;;;;;;4.99;59.36;100780.50;5092471;28;20047;-64
2022/12/03 08:25:41;;;;;;;24.60;14.63;;;;;;;4.90;59.46;100782.13;5094881;28;20048;-64
2022/12/03 08:28:14;;;;;;;25.75;13.98;;;;;;;5.01;59.88;100784.66;5092972;28;20055;-64
2022/12/03 08:30:41;;;;;;;25.52;15.00;;;;;;;5.08;59.64;100787.16;5092774;28;20488;-64
2022/12/03 08:33:25;;;;;;;24.85;14.90;;;;;;;5.06;59.78;100778.31;5093927;28;20052;-64
2022/12/03 08:35:53;;;;;;;24.77;14.20;;;;;;;5.19;59.82;100777.00;5088429;28;20055;-64
2022/12/03 08:38:23;;;;;;;25.98;14.32;;;;;;;5.28;60.26;100784.47;5085511;28;20044;-64
2022/12/03 08:40:54;;;;;;;23.75;15.20;;;;;;;5.35;59.68;100786.97;5088436;28;20044;-64
2022/12/03 08:43:23;;;;;;;22.75;13.77;;;;;;;5.41;59.26;100785.06;5089865;28;20052;-64
2022/12/03 08:45:52;;;;;;;26.13;14.75;;;;;;;5.30;60.03;100784.22;5092982;28;20397;-64
2022/12/03 08:48:35;;;;;;;23.13;14.82;;;;;;;5.49;59.72;100781.78;5092212;28;20059;-65
2022/12/03 08:51:13;;;;;;;25.33;14.70;;;;;;;5.61;59.47;100779.59;5091158;28;20051;-64
2022/12/03 08:53:45;;;;;;;27.80;15.57;;;;;;;5.75;59.16;100773.53;5133275;27;20399;-64
2022/12/03 08:56:21;;;;;;;23.55;14.85;;;;;;;5.83;58.22;100782.09;5132539;27;20061;-65
2022/12/03 08:58:51;;;;;;;25.77;15.00;;;;;;;5.90;58.14;100770.78;5131723;27;20085;-64
2022/12/03 09:01:28;;;;;;;;;;;;;;;5.93;58.50;100773.00;5130307;27;20384;-64
2022/12/03 09:04:02;;;;;;;27.45;15.32;;;;;;;6.00;58.57;100775.50;5151685;27;19919;-64
2022/12/03 09:06:29;;;;;;;27.60;15.50;;;;;;;6.05;58.03;100773.59;5133268;27;20491;-65
2022/12/03 09:08:57;;;;;;;26.77;14.80;;;;;;;6.14;57.71;100779.38;5132161;27;20054;-64
2022/12/03 09:11:24;;;;;;;22.23;14.13;;;;;;;6.28;57.17;100776.91;5133249;27;20047;-65
2022/12/03 09:13:51;;;;;;;22.40;13.80;;;;;;;6.32;56.90;100771.63;5134201;27;20051;-63
2022/12/03 09:16:18;;;;;;;25.10;14.75;;;;;;;6.36;57.40;100778.25;5129654;27;20050;-64
2022/12/03 09:18:45;;;;;;;24.88;15.65;;;;;;;6.53;57.35;100773.25;5140044;27;20046;-64
2022/12/03 09:21:14;;;;;;;22.40;14.15;;;;;;;6.59;56.12;100772.13;5134446;27;20395;-64
2022/12/03 09:23:41;;;;;;;20.33;13.35;;;;;;;6.63;56.36;100770.44;5134451;27;20450;-64
2022/12/03 09:26:08;;;;;;;19.02;11.95;;;;;;;6.68;54.22;100769.63;5134375;27;20051;-64
2022/12/03 09:28:36;;;;;;;16.77;12.13;;;;;;;6.44;53.72;100767.44;5132157;27;20062;-64
2022/12/03 09:31:03;;;;;;;17.33;12.07;;;;;;;6.43;54.46;100778.81;5132939;27;20468;-64
2022/12/03 09:33:31;;;;;;;18.90;12.38;;;;;;;6.55;53.84;100775.72;5133961;27;20051;-65
2022/12/03 09:35:58;;;;;;;18.02;12.90;;;;;;;6.56;54.71;100769.09;5145041;27;20416;-65
2022/12/03 09:38:27;;;;;;;19.50;13.38;;;;;;;6.55;54.78;100761.88;5145974;27;20381;-64
2022/12/03 09:40:54;;;;;;;19.50;13.13;;;;;;;6.58;54.95;100776.00;5134141;27;20326;-65
2022/12/03 09:43:22;;;;;;;19.40;13.60;;;;;;;6.57;55.24;100773.50;5132958;27;20057;-64
2022/12/03 09:45:49;;;;;;;22.27;15.70;;;;;;;6.57;54.29;100762.44;5133601;27;20063;-65
2022/12/03 09:48:18;;;;;;;18.23;13.10;;;;;;;6.62;54.38;100767.97;5131208;27;20050;-65
2022/12/03 09:50:46;;;;;;;21.42;15.15;;;;;;;6.65;54.03;100765.47;5133142;27;20051;-65
2022/12/03 09:53:18;;;;;;;18.45;12.88;;;;;;;6.55;54.71;100764.66;5132068;27;20051;-65
2022/12/03 09:55:47;;;;;;;17.45;12.32;;;;;;;6.57;55.14;100765.22;5153307;27;20359;-64
2022/12/03 09:58:17;;;;;;;17.90;12.45;;;;;;;6.65;55.24;100759.09;5135555;27;20059;-65
2022/12/03 10:00:48;;;;;;;18.25;13.18;;;;;;;6.72;54.30;100748.56;5134069;27;20050;-66
2022/12/03 10:03:18;;;;;;;18.50;11.85;;;;;;;6.74;54.37;100751.03;5134358;27;20059;-64
2022/12/03 10:05:46;;;;;;;18.73;13.00;;;;;;;6.67;53.90;100756.88;5133679;27;20062;-64
2022/12/03 10:08:22;;;;;;;18.90;13.05;;;;;;;6.56;54.29;100750.53;5154142;27;20057;-64
2022/12/03 10:10:55;;;;;;;18.85;12.63;;;;;;;6.53;54.39;100750.28;5130026;27;20054;-65
2022/12/03 10:13:25;;;;;;;18.13;12.75;;;;;;;6.47;54.21;100742.00;5130917;27;20062;-65
2022/12/03 10:15:55;;;;;;;18.70;12.07;;;;;;;6.52;54.48;100754.16;5132824;27;20059;-66
2022/12/03 10:18:24;;;;;;;18.55;12.02;;;;;;;6.56;54.82;100744.19;5133391;27;20051;-65
2022/12/03 10:20:52;;;;;;;19.93;12.73;;;;;;;6.56;54.15;100742.25;5129914;27;20055;-65
2022/12/03 10:23:24;;;;;;;19.70;12.57;;;;;;;6.56;54.00;100744.19;5131751;27;20052;-65
2022/12/03 10:25:55;;;;;;;18.67;11.90;;;;;;;6.45;54.52;100735.09;5131768;27;20368;-65
2022/12/03 10:28:31;;;;;;;19.75;13.75;;;;;;;6.45;54.32;100732.31;5132828;27;20047;-66
2022/12/03 10:30:59;;;;;;;19.98;13.63;;;;;;;6.40;54.61;100729.56;5131858;27;20395;-65
2022/12/03 10:33:32;;;;;;;17.95;12.25;;;;;;;6.39;54.49;100723.19;5133898;27;20057;-65
2022/12/03 10:36:22;;;;;;;21.80;14.18;;;;;;;6.41;54.97;100718.22;5141519;27;20054;-63
2022/12/03 10:39:06;;;;;;;;;;;;;;;6.44;54.64;100719.59;5131811;27;20402;-64
2022/12/03 10:41:37;;;;;;;20.10;12.15;;;;;;;6.30;54.76;100722.94;5135869;27;19919;-64
2022/12/03 10:44:18;;;;;;;21.42;14.38;;;;;;;6.40;55.17;100721.25;5134380;27;20054;-64
2022/12/03 10:46:46;;;;;;;20.70;13.57;;;;;;;6.41;54.69;100714.63;5132846;27;20055;-65
2022/12/03 10:49:17;;;;;;;16.85;11.68;;;;;;;6.55;55.49;100706.53;5146629;27;20384;-64
2022/12/03 10:51:45;;;;;;;19.02;12.60;;;;;;;6.68;53.98;100701.25;5136758;27;20391;-65
2022/12/03 10:54:19;;;;;;;23.13;12.55;;;;;;;6.74;53.82;100704.84;5134704;27;20046;-64
2022/12/03 10:56:50;;;;;;;21.15;15.07;;;;;;;6.75;54.66;100702.88;5149051;27;20046;-65
2022/12/03 10:59:21;;;;;;;20.80;14.32;;;;;;;6.82;54.73;100703.41;5136542;27;20047;-65
2022/12/03 11:01:50;;;;;;;21.17;13.77;;;;;;;6.86;53.61;100696.19;5137998;27;20051;-64
2022/12/03 11:04:23;;;;;;;21.02;13.43;;;;;;;6.78;53.48;100692.06;5151311;27;20053;-65
2022/12/03 11:06:51;;;;;;;20.10;13.10;;;;;;;6.78;53.92;100686.50;5127380;27;20055;-64
2022/12/03 11:09:21;;;;;;;20.05;13.38;;;;;;;6.61;54.27;100681.31;5139149;27;20047;-64
2022/12/03 11:11:49;;;;;;;;;;;;;;;6.69;53.21;100685.47;5129198;27;20059;-64
2022/12/03 11:14:55;;;;;;;20.50;13.35;;;;;;;6.54;53.62;100686.34;5131412;28;19926;-64
2022/12/03 11:17:55;;;;;;;17.02;11.68;;;;;;;6.41;53.24;100687.78;5131217;28;20051;-64
2022/12/03 11:21:10;;;;;;;17.92;12.85;;;;;;;6.32;53.72;100677.56;5089560;28;20456;-64
2022/12/03 11:24:19;;;;;;;17.10;12.45;;;;;;;6.22;53.90;100683.97;5077605;28;20098;-64
2022/12/03 11:27:24;;;;;;;19.33;12.48;;;;;;;6.21;53.63;100687.81;5042133;28;20098;-64
2022/12/03 11:29:56;;;;;;;17.88;12.18;;;;;;;6.14;53.41;100681.75;5053341;28;20056;-64
2022/12/03 11:33:08;;;;;;;19.10;13.20;;;;;;;6.01;53.83;100686.75;5112452;27;20042;-64
2022/12/03 11:36:12;;;;;;;18.17;12.63;;;;;;;5.90;54.53;100682.31;5127903;27;20055;-64
2022/12/03 11:38:53;;;;;;;18.58;11.93;;;;;;;5.86;54.69;100675.69;5134347;27;20518;-64
2022/12/03 11:41:29;;;;;;;20.40;13.85;;;;;;;5.89;55.00;100667.66;5157634;27;20046;-64
2022/12/03 11:44:29;;;;;;;18.48;12.00;;;;;;;5.98;54.92;100661.59;5157015;27;20066;-64
2022/12/03 11:47:12;;;;;;;19.17;13.43;;;;;;;6.03;55.14;100667.13;5154269;27;20054;-65